createdAt,value
2018-09-01T00:00:40.167Z,12.60
2018-09-01T00:03:07.602Z,12.70
2018-09-01T00:05:35.021Z,12.80
2018-09-01T00:08:02.543Z,12.80
2018-09-01T00:10:29.943Z,12.60
2018-09-01T00:12:57.481Z,12.50
2018-09-01T00:15:24.979Z,12.50
2018-09-01T00:17:52.458Z,12.60
2018-09-01T00:20:19.877Z,12.70
2018-09-01T00:22:47.278Z,12.70
2018-09-01T00:25:14.706Z,12.70
2018-09-01T00:27:42.133Z,12.70
2018-09-01T00:30:09.561Z,12.70
2018-09-01T00:32:36.980Z,12.70
2018-09-01T00:35:04.482Z,12.70
2018-09-01T00:37:37.610Z,12.70
2018-09-01T00:40:05.524Z,12.70
2018-09-01T00:42:32.922Z,12.60
2018-09-01T00:45:00.453Z,12.60
2018-09-01T00:47:27.825Z,12.50
2018-09-01T00:49:55.354Z,12.50
2018-09-01T00:52:22.752Z,12.50
2018-09-01T00:54:50.170Z,12.50
2018-09-01T00:57:17.669Z,12.50
2018-09-01T00:59:45.078Z,12.50
2018-09-01T01:02:12.497Z,12.50
2018-09-01T01:04:39.954Z,12.50
2018-09-01T01:07:07.454Z,12.60
2018-09-01T01:09:34.953Z,12.50
2018-09-01T01:12:05.953Z,12.50
2018-09-01T01:14:33.366Z,12.50
2018-09-01T01:17:00.797Z,12.50
2018-09-01T01:19:28.539Z,12.50
2018-09-01T01:21:55.909Z,12.50
2018-09-01T01:24:23.246Z,12.50
2018-09-01T01:26:54.091Z,12.40
2018-09-01T01:29:21.414Z,12.50
2018-09-01T01:31:48.849Z,12.40
2018-09-01T01:34:16.292Z,12.50
2018-09-01T01:36:43.709Z,12.40
2018-09-01T01:39:11.077Z,12.30
2018-09-01T01:41:38.452Z,12.30
2018-09-01T01:44:06.278Z,12.30
2018-09-01T01:46:33.661Z,12.30
2018-09-01T01:49:01.194Z,12.30
2018-09-01T01:51:28.618Z,12.30
2018-09-01T01:53:56.076Z,12.30
2018-09-01T01:56:23.486Z,12.40
2018-09-01T01:58:50.912Z,12.40
2018-09-01T02:01:18.324Z,12.40
2018-09-01T02:03:45.877Z,12.40
2018-09-01T02:06:13.309Z,12.40
2018-09-01T02:08:40.682Z,12.30
2018-09-01T02:11:08.101Z,12.30
2018-09-01T02:13:35.549Z,12.30
2018-09-01T02:16:03.041Z,12.20
2018-09-01T02:18:30.433Z,12.30
2018-09-01T02:20:57.994Z,12.30
2018-09-01T02:23:25.750Z,12.30
2018-09-01T02:25:53.183Z,12.30
2018-09-01T02:28:20.609Z,12.30
2018-09-01T02:30:48.023Z,12.20
2018-09-01T02:33:15.404Z,12.20
2018-09-01T02:35:49.486Z,12.20
2018-09-01T02:38:16.849Z,12.10
2018-09-01T02:40:44.242Z,12.20
2018-09-01T02:43:12.051Z,12.20
2018-09-01T02:45:39.459Z,12.30
2018-09-01T02:48:06.870Z,12.30
2018-09-01T02:50:34.354Z,12.30
2018-09-01T02:53:01.804Z,12.20
2018-09-01T02:55:29.181Z,12.10
2018-09-01T02:57:56.637Z,12.00
2018-09-01T03:00:29.731Z,11.90
2018-09-01T03:02:57.134Z,11.90
2018-09-01T03:05:24.597Z,11.80
2018-09-01T03:07:52.018Z,11.80
2018-09-01T03:10:19.478Z,11.80
2018-09-01T03:12:46.913Z,11.80
2018-09-01T03:15:14.281Z,11.80
2018-09-01T03:17:41.773Z,11.70
2018-09-01T03:20:09.857Z,11.70
2018-09-01T03:22:37.274Z,11.70
2018-09-01T03:25:05.345Z,11.60
2018-09-01T03:27:32.796Z,11.60
2018-09-01T03:30:00.207Z,11.60
2018-09-01T03:32:27.583Z,11.60
2018-09-01T03:34:55.010Z,11.70
2018-09-01T03:37:22.361Z,11.80
2018-09-01T03:39:49.794Z,11.80
2018-09-01T03:42:17.148Z,11.90
2018-09-01T03:44:44.565Z,11.90
2018-09-01T03:47:11.974Z,11.90
2018-09-01T03:49:39.453Z,11.90
2018-09-01T03:52:06.893Z,11.90
2018-09-01T03:54:34.351Z,11.90
2018-09-01T03:57:01.847Z,12.00
2018-09-01T03:59:29.298Z,12.00
2018-09-01T04:01:56.693Z,12.00
2018-09-01T04:04:24.087Z,12.00
2018-09-01T04:06:51.479Z,12.00
2018-09-01T04:09:18.869Z,11.90
2018-09-01T04:11:46.288Z,12.00
2018-09-01T04:14:13.774Z,12.00
2018-09-01T04:16:41.122Z,12.10
2018-09-01T04:19:14.103Z,12.10
2018-09-01T04:21:41.591Z,12.10
2018-09-01T04:24:09.803Z,12.20
2018-09-01T04:26:37.178Z,12.20
2018-09-01T04:29:04.743Z,12.20
2018-09-01T04:31:32.168Z,12.10
2018-09-01T04:33:59.551Z,12.20
2018-09-01T04:36:27.196Z,12.20
2018-09-01T04:38:54.701Z,12.30
2018-09-01T04:41:22.095Z,12.30
2018-09-01T04:43:49.521Z,12.30
2018-09-01T04:46:16.903Z,12.30
2018-09-01T04:48:44.250Z,12.30
2018-09-01T04:51:11.706Z,12.30
2018-09-01T04:53:39.065Z,12.30
2018-09-01T04:56:06.532Z,12.30
2018-09-01T04:58:33.914Z,12.30
2018-09-01T05:01:01.433Z,12.20
2018-09-01T05:03:28.775Z,12.10
2018-09-01T05:05:56.183Z,12.10
2018-09-01T05:08:23.653Z,12.10
2018-09-01T05:10:51.078Z,12.10
2018-09-01T05:13:18.460Z,12.10
2018-09-01T05:15:45.917Z,12.10
2018-09-01T05:18:13.362Z,12.20
2018-09-01T05:20:40.840Z,12.10
2018-09-01T05:23:08.486Z,12.10
2018-09-01T05:25:35.887Z,12.20
2018-09-01T05:28:03.321Z,12.10
2018-09-01T05:30:30.796Z,12.10
2018-09-01T05:32:58.441Z,12.10
2018-09-01T05:35:25.987Z,12.10
2018-09-01T05:37:54.165Z,12.10
2018-09-01T05:40:21.606Z,12.10
2018-09-01T05:42:49.026Z,12.10
2018-09-01T05:45:16.457Z,12.10
2018-09-01T05:47:43.944Z,12.20
2018-09-01T05:50:11.629Z,12.30
2018-09-01T05:52:39.063Z,12.30
2018-09-01T05:55:06.573Z,12.40
2018-09-01T05:57:33.976Z,12.40
2018-09-01T06:00:01.414Z,12.50
2018-09-01T06:02:28.849Z,12.50
2018-09-01T06:04:56.389Z,12.60
2018-09-01T06:07:23.965Z,12.60
2018-09-01T06:09:51.394Z,12.70
2018-09-01T06:12:18.882Z,12.80
2018-09-01T06:14:46.350Z,12.90
2018-09-01T06:17:13.725Z,13.00
2018-09-01T06:19:41.201Z,13.00
2018-09-01T06:22:10.518Z,13.10
2018-09-01T06:24:38.040Z,13.10
2018-09-01T06:27:11.338Z,13.20
2018-09-01T06:29:38.773Z,13.30
2018-09-01T06:32:07.363Z,13.30
2018-09-01T06:34:34.808Z,13.50
2018-09-01T06:37:02.257Z,13.60
2018-09-01T06:39:29.664Z,13.70
2018-09-01T06:41:57.178Z,13.90
2018-09-01T06:44:24.729Z,14.30
2018-09-01T06:46:52.485Z,14.90
2018-09-01T06:49:20.009Z,15.70
2018-09-01T06:51:47.450Z,16.00
2018-09-01T06:54:14.773Z,16.20
2018-09-01T06:56:42.222Z,16.00
2018-09-01T06:59:09.802Z,15.90
2018-09-01T07:01:37.185Z,15.70
2018-09-01T07:04:04.635Z,15.50
2018-09-01T07:06:31.974Z,15.40
2018-09-01T07:08:59.361Z,15.40
2018-09-01T07:11:26.752Z,15.40
2018-09-01T07:13:54.201Z,15.40
2018-09-01T07:16:21.701Z,15.40
2018-09-01T07:18:49.165Z,15.50
2018-09-01T07:21:16.742Z,15.60
2018-09-01T07:23:44.082Z,15.70
2018-09-01T07:26:12.077Z,15.80
2018-09-01T07:28:39.437Z,15.80
2018-09-01T07:31:07.111Z,15.90
2018-09-01T07:33:34.590Z,15.90
2018-09-01T07:36:02.009Z,16.00
2018-09-01T07:38:29.434Z,16.10
2018-09-01T07:40:56.905Z,16.10
2018-09-01T07:43:24.337Z,16.20
2018-09-01T07:45:51.732Z,16.30
2018-09-01T07:48:19.129Z,16.40
2018-09-01T07:50:46.523Z,16.50
2018-09-01T07:53:14.089Z,16.70
2018-09-01T07:55:41.474Z,16.80
2018-09-01T07:58:09.118Z,16.90
2018-09-01T08:00:37.159Z,17.10
2018-09-01T08:03:04.972Z,17.10
2018-09-01T08:05:32.293Z,17.20
2018-09-01T08:07:59.657Z,17.30
2018-09-01T08:10:26.997Z,17.40
2018-09-01T08:12:54.402Z,17.60
2018-09-01T08:15:21.753Z,17.70
2018-09-01T08:17:49.131Z,17.80
2018-09-01T08:20:16.460Z,17.90
2018-09-01T08:22:43.960Z,18.10
2018-09-01T08:25:11.381Z,18.20
2018-09-01T08:27:38.881Z,18.30
2018-09-01T08:30:06.358Z,18.50
2018-09-01T08:32:33.695Z,18.60
2018-09-01T08:35:01.119Z,18.60
2018-09-01T08:37:28.491Z,18.70
2018-09-01T08:39:55.915Z,18.80
2018-09-01T08:42:23.278Z,18.90
2018-09-01T08:44:50.661Z,19.00
2018-09-01T08:47:18.088Z,19.10
2018-09-01T08:49:45.430Z,19.20
2018-09-01T08:52:12.900Z,19.30
2018-09-01T08:54:47.105Z,19.40
2018-09-01T08:57:14.533Z,19.50
2018-09-01T08:59:41.935Z,19.60
2018-09-01T09:02:09.545Z,19.80
2018-09-01T09:04:36.926Z,19.80
2018-09-01T09:07:04.326Z,19.90
2018-09-01T09:09:31.984Z,19.90
2018-09-01T09:11:59.364Z,20.00
2018-09-01T09:14:26.762Z,20.00
2018-09-01T09:16:54.169Z,20.10
2018-09-01T09:19:22.015Z,20.20
2018-09-01T09:21:49.569Z,20.20
2018-09-01T09:24:16.933Z,20.20
2018-09-01T09:26:44.376Z,20.20
2018-09-01T09:29:11.856Z,20.30
2018-09-01T09:31:39.205Z,20.40
2018-09-01T09:34:06.561Z,20.40
2018-09-01T09:36:33.888Z,20.50
2018-09-01T09:39:01.587Z,20.60
2018-09-01T09:41:28.933Z,20.60
2018-09-01T09:43:56.269Z,20.60
2018-09-01T09:46:23.649Z,20.70
2018-09-01T09:48:51.017Z,20.70
2018-09-01T09:51:18.415Z,20.80
2018-09-01T09:53:45.749Z,20.90
2018-09-01T09:56:13.097Z,20.90
2018-09-01T09:58:40.501Z,21.10
2018-09-01T10:01:14.023Z,21.20
2018-09-01T10:03:41.493Z,21.20
2018-09-01T10:06:08.863Z,21.20
2018-09-01T10:08:36.190Z,21.30
2018-09-01T10:11:03.679Z,21.30
2018-09-01T10:13:31.046Z,21.30
2018-09-01T10:15:58.593Z,21.30
2018-09-01T10:18:25.782Z,21.30
2018-09-01T10:20:53.478Z,21.30
2018-09-01T10:23:21.269Z,21.40
2018-09-01T10:25:48.633Z,21.30
2018-09-01T10:28:15.992Z,21.30
2018-09-01T10:30:43.399Z,21.20
2018-09-01T10:33:10.758Z,21.20
2018-09-01T10:35:38.087Z,21.20
2018-09-01T10:38:05.429Z,21.10
2018-09-01T10:40:32.775Z,21.20
2018-09-01T10:43:00.120Z,21.20
2018-09-01T10:45:27.472Z,21.20
2018-09-01T10:47:54.860Z,21.20
2018-09-01T10:50:22.241Z,21.20
2018-09-01T10:52:49.625Z,21.20
2018-09-01T10:55:16.973Z,21.10
2018-09-01T10:57:44.646Z,21.10
2018-09-01T11:00:12.751Z,21.10
2018-09-01T11:02:40.109Z,21.10
2018-09-01T11:05:07.460Z,21.10
2018-09-01T11:07:34.931Z,21.10
2018-09-01T11:10:02.342Z,21.10
2018-09-01T11:12:29.769Z,21.10
2018-09-01T11:14:57.134Z,21.00
2018-09-01T11:17:24.469Z,21.00
2018-09-01T11:19:51.870Z,20.90
2018-09-01T11:22:19.293Z,20.90
2018-09-01T11:24:46.637Z,20.90
2018-09-01T11:27:13.986Z,20.90
2018-09-01T11:29:41.329Z,20.90
2018-09-01T11:32:08.722Z,20.90
2018-09-01T11:34:36.133Z,20.90
2018-09-01T11:37:03.519Z,20.90
2018-09-01T11:39:30.986Z,20.90
2018-09-01T11:41:58.557Z,21.00
2018-09-01T11:44:27.665Z,21.00
2018-09-01T11:46:55.034Z,21.00
2018-09-01T11:49:22.386Z,21.00
2018-09-01T11:51:49.762Z,21.00
2018-09-01T11:54:17.117Z,21.00
2018-09-01T11:56:44.502Z,21.00
2018-09-01T11:59:11.889Z,21.10
2018-09-01T12:01:39.261Z,21.10
2018-09-01T12:04:06.650Z,21.10
2018-09-01T12:06:33.977Z,21.20
2018-09-01T12:09:01.374Z,21.30
2018-09-01T12:11:28.722Z,21.40
2018-09-01T12:13:56.180Z,21.50
2018-09-01T12:16:23.530Z,21.60
2018-09-01T12:18:50.830Z,21.60
2018-09-01T12:21:18.677Z,21.60
2018-09-01T12:23:46.034Z,21.60
2018-09-01T12:26:13.566Z,21.60
2018-09-01T12:28:40.918Z,21.60
2018-09-01T12:31:08.544Z,21.50
2018-09-01T12:33:35.864Z,21.50
2018-09-01T12:36:03.663Z,21.50
2018-09-01T12:38:31.105Z,21.50
2018-09-01T12:40:58.498Z,21.60
2018-09-01T12:43:25.855Z,21.50
2018-09-01T12:45:53.200Z,21.60
2018-09-01T12:48:20.536Z,21.60
2018-09-01T12:50:47.910Z,21.60
2018-09-01T12:53:15.573Z,21.60
2018-09-01T12:55:42.881Z,21.60
2018-09-01T12:58:10.237Z,21.60
2018-09-01T13:00:37.636Z,21.60
2018-09-01T13:03:04.997Z,21.60
2018-09-01T13:05:32.390Z,21.70
2018-09-01T13:07:59.776Z,21.70
2018-09-01T13:10:27.101Z,21.70
2018-09-01T13:12:54.501Z,21.70
2018-09-01T13:15:21.832Z,21.70
2018-09-01T13:17:49.408Z,21.70
2018-09-01T13:20:16.757Z,21.70
2018-09-01T13:22:44.127Z,21.70
2018-09-01T13:25:11.497Z,21.60
2018-09-01T13:27:38.825Z,21.50
2018-09-01T13:30:06.399Z,21.50
2018-09-01T13:32:33.754Z,21.50
2018-09-01T13:35:01.422Z,21.50
2018-09-01T13:37:28.765Z,21.50
2018-09-01T13:39:56.195Z,21.50
2018-09-01T13:42:23.535Z,21.50
2018-09-01T13:44:50.871Z,21.50
2018-09-01T13:47:18.214Z,21.50
2018-09-01T13:49:45.569Z,21.50
2018-09-01T13:52:13.409Z,21.60
2018-09-01T13:54:40.737Z,21.70
2018-09-01T13:57:08.106Z,21.80
2018-09-01T13:59:35.485Z,21.80
2018-09-01T14:02:02.846Z,21.80
2018-09-01T14:04:30.205Z,21.90
2018-09-01T14:06:57.637Z,21.90
2018-09-01T14:09:24.994Z,21.90
2018-09-01T14:11:52.366Z,21.90
2018-09-01T14:14:19.832Z,21.90
2018-09-01T14:16:47.239Z,21.90
2018-09-01T14:19:15.157Z,21.90
2018-09-01T14:21:42.548Z,22.00
2018-09-01T14:24:09.905Z,22.00
2018-09-01T14:26:37.253Z,21.90
2018-09-01T14:29:06.386Z,21.90
2018-09-01T14:31:33.769Z,21.90
2018-09-01T14:34:01.210Z,21.90
2018-09-01T14:36:28.718Z,21.90
2018-09-01T14:38:56.557Z,22.00
2018-09-01T14:41:23.934Z,22.00
2018-09-01T14:43:51.445Z,22.00
2018-09-01T14:46:18.917Z,22.00
2018-09-01T14:48:46.262Z,22.00
2018-09-01T14:51:13.741Z,21.90
2018-09-01T14:53:41.126Z,21.90
2018-09-01T14:56:08.481Z,21.90
2018-09-01T14:58:36.225Z,21.90
2018-09-01T15:01:03.665Z,21.90
2018-09-01T15:03:31.437Z,21.90
2018-09-01T15:06:00.479Z,21.90
2018-09-01T15:08:28.049Z,22.00
2018-09-01T15:10:55.704Z,22.00
2018-09-01T15:13:23.634Z,21.90
2018-09-01T15:15:50.974Z,21.90
2018-09-01T15:18:18.782Z,21.90
2018-09-01T15:20:46.154Z,21.80
2018-09-01T15:23:13.833Z,21.80
2018-09-01T15:25:41.525Z,21.80
2018-09-01T15:28:09.463Z,21.80
2018-09-01T15:30:36.841Z,21.80
2018-09-01T15:33:04.186Z,21.80
2018-09-01T15:35:31.707Z,21.70
2018-09-01T15:37:59.120Z,21.70
2018-09-01T15:40:26.493Z,21.70
2018-09-01T15:42:55.715Z,21.70
2018-09-01T15:45:23.209Z,21.70
2018-09-01T15:47:51.637Z,21.60
2018-09-01T15:50:18.997Z,21.70
2018-09-01T15:52:47.181Z,21.60
2018-09-01T15:55:14.656Z,21.60
2018-09-01T15:57:42.149Z,21.60
2018-09-01T16:00:09.718Z,21.60
2018-09-01T16:02:37.310Z,21.60
2018-09-01T16:05:04.860Z,21.60
2018-09-01T16:07:32.570Z,21.50
2018-09-01T16:10:01.369Z,21.50
2018-09-01T16:12:28.845Z,21.50
2018-09-01T16:14:56.205Z,21.60
2018-09-01T16:17:23.688Z,21.60
2018-09-01T16:19:51.114Z,21.60
2018-09-01T16:22:18.527Z,21.60
2018-09-01T16:24:45.904Z,21.50
2018-09-01T16:27:13.566Z,21.50
2018-09-01T16:29:41.361Z,21.50
2018-09-01T16:32:09.072Z,21.50
2018-09-01T16:34:36.632Z,21.40
2018-09-01T16:37:04.243Z,21.40
2018-09-01T16:39:31.630Z,21.30
2018-09-01T16:41:59.007Z,21.30
2018-09-01T16:44:26.337Z,21.30
2018-09-01T16:46:53.737Z,21.30
2018-09-01T16:49:21.170Z,21.20
2018-09-01T16:51:48.553Z,21.20
2018-09-01T16:54:15.906Z,21.20
2018-09-01T16:56:43.329Z,21.20
2018-09-01T16:59:10.675Z,21.10
2018-09-01T17:01:38.097Z,21.10
2018-09-01T17:04:05.530Z,21.00
2018-09-01T17:06:32.893Z,20.90
2018-09-01T17:09:00.294Z,20.90
2018-09-01T17:11:27.630Z,20.80
2018-09-01T17:13:55.374Z,20.80
2018-09-01T17:16:22.806Z,20.80
2018-09-01T17:18:50.157Z,20.70
2018-09-01T17:21:17.759Z,20.60
2018-09-01T17:23:45.232Z,20.60
2018-09-01T17:26:12.652Z,20.60
2018-09-01T17:28:40.014Z,20.50
2018-09-01T17:31:07.430Z,20.50
2018-09-01T17:33:34.986Z,20.40
2018-09-01T17:36:02.389Z,20.40
2018-09-01T17:38:29.741Z,20.30
2018-09-01T17:40:57.130Z,20.20
2018-09-01T17:43:24.485Z,20.10
2018-09-01T17:45:51.869Z,20.10
2018-09-01T17:48:19.353Z,20.10
2018-09-01T17:50:46.794Z,20.00
2018-09-01T17:53:14.169Z,19.90
2018-09-01T17:55:41.538Z,19.80
2018-09-01T17:58:09.093Z,19.80
2018-09-01T18:00:36.549Z,19.80
2018-09-01T18:03:03.917Z,19.80
2018-09-01T18:05:31.317Z,19.70
2018-09-01T18:07:58.875Z,19.60
2018-09-01T18:10:26.362Z,19.50
2018-09-01T18:12:53.698Z,19.40
2018-09-01T18:15:21.171Z,19.30
2018-09-01T18:17:48.544Z,19.20
2018-09-01T18:20:17.034Z,19.20
2018-09-01T18:22:44.401Z,19.00
2018-09-01T18:25:11.804Z,19.00
2018-09-01T18:27:39.224Z,18.90
2018-09-01T18:30:07.330Z,18.90
2018-09-01T18:32:34.725Z,18.90
2018-09-01T18:35:02.140Z,18.90
2018-09-01T18:37:29.565Z,18.80
2018-09-01T18:39:57.029Z,18.80
2018-09-01T18:42:24.442Z,18.70
2018-09-01T18:44:51.953Z,18.60
2018-09-01T18:47:19.281Z,18.50
2018-09-01T18:49:46.759Z,18.50
2018-09-01T18:52:15.125Z,18.50
2018-09-01T18:54:42.678Z,18.40
2018-09-01T18:57:10.337Z,18.50
2018-09-01T18:59:37.761Z,18.50
2018-09-01T19:02:05.342Z,18.40
2018-09-01T19:04:32.737Z,18.40
2018-09-01T19:07:00.129Z,18.30
2018-09-01T19:09:27.574Z,18.20
2018-09-01T19:11:55.021Z,18.10
2018-09-01T19:14:22.385Z,18.10
2018-09-01T19:16:49.757Z,18.10
2018-09-01T19:19:17.118Z,18.00
2018-09-01T19:21:44.462Z,17.90
2018-09-01T19:24:11.916Z,17.80
2018-09-01T19:26:39.333Z,17.70
2018-09-01T19:29:06.737Z,17.60
2018-09-01T19:31:34.128Z,17.60
2018-09-01T19:34:01.605Z,17.70
2018-09-01T19:36:29.001Z,17.40
2018-09-01T19:38:56.446Z,17.40
2018-09-01T19:41:23.769Z,17.20
2018-09-01T19:43:51.234Z,17.30
2018-09-01T19:46:18.649Z,17.20
2018-09-01T19:48:45.961Z,17.20
2018-09-01T19:51:13.610Z,17.10
2018-09-01T19:53:41.055Z,17.10
2018-09-01T19:56:08.404Z,17.20
2018-09-01T19:58:36.092Z,17.20
2018-09-01T20:01:03.594Z,17.00
2018-09-01T20:03:31.103Z,17.10
2018-09-01T20:05:58.596Z,17.00
2018-09-01T20:08:25.985Z,16.90
2018-09-01T20:10:53.421Z,16.80
2018-09-01T20:13:20.806Z,16.80
2018-09-01T20:15:48.165Z,16.70
2018-09-01T20:18:16.114Z,16.70
2018-09-01T20:20:43.554Z,16.70
2018-09-01T20:23:10.940Z,16.70
2018-09-01T20:25:38.361Z,16.70
2018-09-01T20:28:06.267Z,16.70
2018-09-01T20:30:33.657Z,16.70
2018-09-01T20:33:01.026Z,16.60
2018-09-01T20:35:34.053Z,16.70
2018-09-01T20:38:01.557Z,16.70
2018-09-01T20:40:28.836Z,16.60
2018-09-01T20:42:56.226Z,16.50
2018-09-01T20:45:23.601Z,16.50
2018-09-01T20:47:50.977Z,16.50
2018-09-01T20:50:18.358Z,16.50
2018-09-01T20:52:45.721Z,16.50
2018-09-01T20:55:13.313Z,16.40
2018-09-01T20:57:40.807Z,16.30
2018-09-01T21:00:08.181Z,16.40
2018-09-01T21:02:35.554Z,16.40
2018-09-01T21:05:03.063Z,16.50
2018-09-01T21:07:30.446Z,16.50
2018-09-01T21:09:58.198Z,16.50
2018-09-01T21:12:25.553Z,16.40
2018-09-01T21:14:52.933Z,16.30
2018-09-01T21:17:20.259Z,16.20
2018-09-01T21:19:47.714Z,16.10
2018-09-01T21:22:15.781Z,16.00
2018-09-01T21:24:43.165Z,16.00
2018-09-01T21:27:10.564Z,16.00
2018-09-01T21:29:38.021Z,15.90
2018-09-01T21:32:05.471Z,15.80
2018-09-01T21:34:32.909Z,15.80
2018-09-01T21:37:00.333Z,15.60
2018-09-01T21:39:27.696Z,15.60
2018-09-01T21:41:55.109Z,15.60
2018-09-01T21:44:22.493Z,15.50
2018-09-01T21:46:50.488Z,15.60
2018-09-01T21:49:17.921Z,15.70
2018-09-01T21:51:45.333Z,15.60
2018-09-01T21:54:12.673Z,15.80
2018-09-01T21:56:40.012Z,15.60
2018-09-01T21:59:07.354Z,15.50
2018-09-01T22:01:36.205Z,15.40
2018-09-01T22:04:03.899Z,15.50
2018-09-01T22:06:31.294Z,15.60
2018-09-01T22:08:58.665Z,15.70
2018-09-01T22:11:26.070Z,15.60
2018-09-01T22:13:53.493Z,15.50
2018-09-01T22:16:20.868Z,15.40
2018-09-01T22:18:48.357Z,15.20
2018-09-01T22:21:15.780Z,15.20
2018-09-01T22:23:43.174Z,15.10
2018-09-01T22:26:10.554Z,15.30
2018-09-01T22:28:37.994Z,15.40
2018-09-01T22:31:05.679Z,15.50
2018-09-01T22:33:33.105Z,15.50
2018-09-01T22:36:00.550Z,15.40
2018-09-01T22:38:28.169Z,15.20
2018-09-01T22:40:55.612Z,15.00
2018-09-01T22:43:23.146Z,14.80
2018-09-01T22:45:50.533Z,14.80
2018-09-01T22:48:17.884Z,14.90
2018-09-01T22:50:45.241Z,15.00
2018-09-01T22:53:12.594Z,15.00
2018-09-01T22:55:39.970Z,15.00
2018-09-01T22:58:14.361Z,15.10
2018-09-01T23:00:41.800Z,15.00
2018-09-01T23:03:09.182Z,14.90
2018-09-01T23:05:36.659Z,14.70
2018-09-01T23:08:04.108Z,14.60
2018-09-01T23:10:31.725Z,14.60
2018-09-01T23:12:59.201Z,14.70
2018-09-01T23:15:26.621Z,14.70
2018-09-01T23:17:53.961Z,14.70
2018-09-01T23:20:21.427Z,14.70
2018-09-01T23:22:48.836Z,14.60
2018-09-01T23:25:16.227Z,14.60
2018-09-01T23:27:43.747Z,14.50
2018-09-01T23:30:11.311Z,14.40
2018-09-01T23:32:38.633Z,14.40
2018-09-01T23:35:05.992Z,14.50
2018-09-01T23:37:33.317Z,14.30
2018-09-01T23:40:00.794Z,14.40
2018-09-01T23:42:28.178Z,14.50
2018-09-01T23:44:55.593Z,14.40
2018-09-01T23:47:23.017Z,14.40
2018-09-01T23:49:50.373Z,14.50
2018-09-01T23:52:17.944Z,14.50
2018-09-01T23:54:45.289Z,14.40
2018-09-01T23:57:12.637Z,14.30
2018-09-01T23:59:40.080Z,14.20
